UAL1621 KLAX-KMCO
Flight info
| Callsign | UAL1621 |
|---|---|
| Flight time | N/A |
| Altitude | 39000 |
| Route | DOTSS2 CNERY BLH SPTFR Q4 ELP JCT J86 LEV Y280 CHRGE PRICY5 |
| Aircraft | B38M/M-SDE1FGHILORVWXY/HB1 |
Departure
| Time | 2026-05-07 14:39 |
|---|---|
| Airport | Los Angeles International Airport (KLAX) |
Arrival
| Time | N/A |
|---|---|
| Airport | Orlando International Airport (KMCO) |
| Time | Latitude | Longitude | Altitude | Speed | Heading |
|---|---|---|---|---|---|
| 2026-05-07 14:07 | 33.94040 | -118.39904 | 98 ft | 0 kts | 354° |
| 2026-05-07 14:27 | 33.94025 | -118.39903 | 97 ft | 4 kts | 354° |
| 2026-05-07 14:28 | 33.94003 | -118.39899 | 95 ft | 4 kts | 344° |
| 2026-05-07 14:28 | 33.93981 | -118.39884 | 96 ft | 4 kts | 303° |
| 2026-05-07 14:28 | 33.93975 | -118.39857 | 95 ft | 2 kts | 264° |
| 2026-05-07 14:28 | 33.93976 | -118.39850 | 97 ft | 0 kts | 263° |
| 2026-05-07 14:31 | 33.93976 | -118.39854 | 95 ft | 2 kts | 263° |
| 2026-05-07 14:32 | 33.93972 | -118.39888 | 96 ft | 7 kts | 263° |
| 2026-05-07 14:32 | 33.93963 | -118.39975 | 98 ft | 14 kts | 264° |
| 2026-05-07 14:32 | 33.93955 | -118.40063 | 96 ft | 18 kts | 261° |
| 2026-05-07 14:32 | 33.93937 | -118.40214 | 99 ft | 14 kts | 265° |
| 2026-05-07 14:33 | 33.93928 | -118.40323 | 97 ft | 16 kts | 263° |
| 2026-05-07 14:33 | 33.93915 | -118.40444 | 96 ft | 9 kts | 264° |
| 2026-05-07 14:33 | 33.93905 | -118.40552 | 96 ft | 17 kts | 263° |
| 2026-05-07 14:33 | 33.93888 | -118.40720 | 95 ft | 24 kts | 261° |
| 2026-05-07 14:34 | 33.93867 | -118.40938 | 99 ft | 29 kts | 264° |
| 2026-05-07 14:34 | 33.93849 | -118.41116 | 95 ft | 18 kts | 262° |
| 2026-05-07 14:34 | 33.93864 | -118.41248 | 98 ft | 18 kts | 320° |
| 2026-05-07 14:34 | 33.94006 | -118.41282 | 95 ft | 24 kts | 352° |
| 2026-05-07 14:35 | 33.94192 | -118.41309 | 97 ft | 29 kts | 353° |
| 2026-05-07 14:35 | 33.94403 | -118.41343 | 96 ft | 32 kts | 352° |
| 2026-05-07 14:35 | 33.94589 | -118.41370 | 95 ft | 27 kts | 353° |
| 2026-05-07 14:35 | 33.94734 | -118.41390 | 96 ft | 16 kts | 356° |
| 2026-05-07 14:36 | 33.94791 | -118.41311 | 97 ft | 15 kts | 81° |
| 2026-05-07 14:36 | 33.94805 | -118.41178 | 99 ft | 17 kts | 83° |
| 2026-05-07 14:36 | 33.94821 | -118.41028 | 98 ft | 19 kts | 84° |
| 2026-05-07 14:36 | 33.94835 | -118.40859 | 97 ft | 22 kts | 84° |
| 2026-05-07 14:37 | 33.94855 | -118.40706 | 97 ft | 19 kts | 84° |
| 2026-05-07 14:37 | 33.94891 | -118.40360 | 97 ft | 22 kts | 81° |
| 2026-05-07 14:37 | 33.94906 | -118.40182 | 98 ft | 22 kts | 83° |
| 2026-05-07 14:38 | 33.94925 | -118.40006 | 95 ft | 15 kts | 78° |
| 2026-05-07 14:38 | 33.94999 | -118.39921 | 97 ft | 17 kts | 358° |
| 2026-05-07 14:38 | 33.95035 | -118.40026 | 97 ft | 16 kts | 262° |
| 2026-05-07 14:38 | 33.95016 | -118.40214 | 102 ft | 46 kts | 263° |
| 2026-05-07 14:39 | 33.94943 | -118.40918 | 100 ft | 120 kts | 263° |
| 2026-05-07 14:39 | 33.94817 | -118.42161 | 158 ft | 170 kts | 262° |
| 2026-05-07 14:39 | 33.94650 | -118.43578 | 914 ft | 167 kts | 262° |
| 2026-05-07 14:39 | 33.94510 | -118.44909 | 1916 ft | 160 kts | 264° |
| 2026-05-07 14:40 | 33.94392 | -118.46287 | 2570 ft | 172 kts | 266° |
| 2026-05-07 14:40 | 33.94334 | -118.47805 | 3126 ft | 192 kts | 269° |
| 2026-05-07 14:40 | 33.94275 | -118.49499 | 3648 ft | 216 kts | 269° |
| 2026-05-07 14:40 | 33.94166 | -118.51420 | 4212 ft | 241 kts | 265° |
| 2026-05-07 14:41 | 33.94005 | -118.53505 | 4906 ft | 260 kts | 265° |
| 2026-05-07 14:41 | 33.93834 | -118.55751 | 5616 ft | 277 kts | 265° |
| 2026-05-07 14:41 | 33.93659 | -118.58068 | 6635 ft | 279 kts | 265° |
| 2026-05-07 14:41 | 33.93340 | -118.60399 | 7512 ft | 287 kts | 249° |
| 2026-05-07 14:42 | 33.92264 | -118.62407 | 8469 ft | 290 kts | 222° |
| 2026-05-07 14:42 | 33.90543 | -118.63679 | 9352 ft | 294 kts | 196° |
| 2026-05-07 14:42 | 33.88530 | -118.63980 | 10266 ft | 295 kts | 175° |
| 2026-05-07 14:42 | 33.86425 | -118.63853 | 10850 ft | 312 kts | 175° |
| 2026-05-07 14:43 | 33.84221 | -118.63460 | 11279 ft | 329 kts | 158° |
| 2026-05-07 14:43 | 33.82207 | -118.62139 | 11794 ft | 341 kts | 144° |
| 2026-05-07 14:43 | 33.80181 | -118.60529 | 12365 ft | 354 kts | 144° |
| 2026-05-07 14:43 | 33.78127 | -118.58885 | 13282 ft | 357 kts | 144° |
| 2026-05-07 14:44 | 33.76050 | -118.57209 | 14043 ft | 363 kts | 144° |
| 2026-05-07 14:44 | 33.73940 | -118.55501 | 14772 ft | 368 kts | 143° |
| 2026-05-07 14:44 | 33.71813 | -118.53760 | 15505 ft | 372 kts | 140° |
| 2026-05-07 14:44 | 33.70021 | -118.51534 | 16188 ft | 372 kts | 121° |
| 2026-05-07 14:45 | 33.68886 | -118.48759 | 16891 ft | 372 kts | 108° |
| 2026-05-07 14:45 | 33.67952 | -118.45833 | 17567 ft | 377 kts | 107° |
| 2026-05-07 14:45 | 33.67036 | -118.42873 | 18285 ft | 381 kts | 107° |
| 2026-05-07 14:45 | 33.66125 | -118.39873 | 18883 ft | 385 kts | 107° |
| 2026-05-07 14:46 | 33.65214 | -118.36834 | 19512 ft | 389 kts | 106° |
| 2026-05-07 14:46 | 33.64576 | -118.33696 | 20091 ft | 387 kts | 91° |
| 2026-05-07 14:46 | 33.64525 | -118.30459 | 20667 ft | 390 kts | 88° |
| 2026-05-07 14:46 | 33.64493 | -118.27186 | 21236 ft | 394 kts | 87° |
| 2026-05-07 14:47 | 33.64477 | -118.23886 | 21823 ft | 398 kts | 87° |
| 2026-05-07 14:47 | 33.64471 | -118.20550 | 22392 ft | 402 kts | 87° |
| 2026-05-07 14:47 | 33.64469 | -118.17193 | 22956 ft | 406 kts | 87° |
| 2026-05-07 14:47 | 33.64467 | -118.13788 | 23514 ft | 410 kts | 87° |
| 2026-05-07 14:48 | 33.64466 | -118.10361 | 24008 ft | 413 kts | 87° |
| 2026-05-07 14:48 | 33.64463 | -118.06899 | 24494 ft | 416 kts | 87° |
| 2026-05-07 14:48 | 33.64460 | -118.03459 | 24978 ft | 419 kts | 87° |
| 2026-05-07 14:48 | 33.64456 | -117.99952 | 25455 ft | 422 kts | 87° |
| 2026-05-07 14:49 | 33.64450 | -117.96419 | 25889 ft | 425 kts | 87° |
| 2026-05-07 14:49 | 33.64444 | -117.92874 | 26367 ft | 427 kts | 87° |
| 2026-05-07 14:49 | 33.64436 | -117.89250 | 26824 ft | 430 kts | 87° |
| 2026-05-07 14:49 | 33.64428 | -117.85695 | 27256 ft | 433 kts | 87° |
| 2026-05-07 14:50 | 33.64419 | -117.82072 | 27697 ft | 436 kts | 87° |
| 2026-05-07 14:50 | 33.64091 | -117.78433 | 28110 ft | 444 kts | 102° |
| 2026-05-07 14:50 | 33.63212 | -117.74865 | 28566 ft | 447 kts | 103° |
| 2026-05-07 14:50 | 33.62360 | -117.71262 | 28936 ft | 451 kts | 103° |
| 2026-05-07 14:51 | 33.61482 | -117.67635 | 29361 ft | 453 kts | 103° |
| 2026-05-07 14:51 | 33.60591 | -117.64002 | 29757 ft | 456 kts | 103° |
| 2026-05-07 14:51 | 33.59688 | -117.60339 | 30141 ft | 459 kts | 103° |
| 2026-05-07 14:51 | 33.58779 | -117.56660 | 30466 ft | 462 kts | 103° |
| 2026-05-07 14:52 | 33.57860 | -117.52948 | 30758 ft | 466 kts | 103° |
| 2026-05-07 14:52 | 33.56936 | -117.49221 | 31071 ft | 469 kts | 103° |
| 2026-05-07 14:52 | 33.56003 | -117.45461 | 31398 ft | 472 kts | 103° |
| 2026-05-07 14:52 | 33.55063 | -117.41680 | 31717 ft | 475 kts | 103° |
| 2026-05-07 14:53 | 33.54120 | -117.37890 | 32108 ft | 475 kts | 103° |
| 2026-05-07 14:53 | 33.53175 | -117.34101 | 32517 ft | 476 kts | 103° |
| 2026-05-07 14:53 | 33.52224 | -117.30293 | 32911 ft | 477 kts | 103° |
| 2026-05-07 14:53 | 33.51274 | -117.26492 | 33302 ft | 477 kts | 103° |
| 2026-05-07 14:54 | 33.50567 | -117.22628 | 33682 ft | 470 kts | 90° |
| 2026-05-07 14:54 | 33.50485 | -117.18755 | 34088 ft | 468 kts | 87° |
| 2026-05-07 14:54 | 33.50399 | -117.14847 | 34405 ft | 469 kts | 87° |
| 2026-05-07 14:54 | 33.50330 | -117.10938 | 34754 ft | 469 kts | 86° |
| 2026-05-07 14:55 | 33.50271 | -117.07046 | 35105 ft | 468 kts | 86° |
| 2026-05-07 14:55 | 33.50216 | -117.03160 | 35458 ft | 468 kts | 86° |
| 2026-05-07 14:55 | 33.50160 | -116.99267 | 35808 ft | 467 kts | 86° |
| 2026-05-07 14:55 | 33.50104 | -116.95375 | 36130 ft | 467 kts | 86° |
| 2026-05-07 14:56 | 33.50046 | -116.91496 | 36447 ft | 466 kts | 86° |
| 2026-05-07 14:56 | 33.49987 | -116.87614 | 36762 ft | 466 kts | 86° |
| 2026-05-07 14:56 | 33.49928 | -116.83734 | 37043 ft | 466 kts | 86° |
| 2026-05-07 14:56 | 33.49867 | -116.79850 | 37061 ft | 465 kts | 86° |
| 2026-05-07 14:57 | 33.49742 | -116.72149 | 37023 ft | 462 kts | 86° |
| 2026-05-07 14:57 | 33.49613 | -116.64496 | 37013 ft | 463 kts | 87° |
| 2026-05-07 14:58 | 33.49478 | -116.56737 | 36997 ft | 463 kts | 87° |
| 2026-05-07 14:58 | 33.49339 | -116.49053 | 36975 ft | 461 kts | 87° |
| 2026-05-07 14:59 | 33.49209 | -116.41427 | 36981 ft | 462 kts | 86° |
| 2026-05-07 14:59 | 33.49096 | -116.33745 | 37025 ft | 461 kts | 86° |
| 2026-05-07 15:00 | 33.48979 | -116.26043 | 36967 ft | 461 kts | 86° |
| 2026-05-07 15:00 | 33.48856 | -116.18376 | 36985 ft | 461 kts | 86° |
| 2026-05-07 15:01 | 33.48729 | -116.10704 | 36974 ft | 461 kts | 86° |
| 2026-05-07 15:01 | 33.48936 | -116.03095 | 36957 ft | 451 kts | 71° |
| 2026-05-07 15:02 | 33.50845 | -115.95989 | 36948 ft | 449 kts | 67° |
| 2026-05-07 15:02 | 33.52861 | -115.88916 | 36970 ft | 448 kts | 66° |
| 2026-05-07 15:03 | 33.54909 | -115.81874 | 36969 ft | 448 kts | 66° |
| 2026-05-07 15:03 | 33.56963 | -115.74820 | 36966 ft | 448 kts | 66° |
| 2026-05-07 15:04 | 33.59014 | -115.67761 | 36968 ft | 448 kts | 66° |
| 2026-05-07 15:04 | 33.61060 | -115.60700 | 36974 ft | 448 kts | 67° |
| 2026-05-07 15:05 | 33.62595 | -115.53519 | 36975 ft | 454 kts | 82° |
| 2026-05-07 15:05 | 33.62449 | -115.49704 | 36940 ft | 463 kts | 96° |
| 2026-05-07 15:05 | 33.61721 | -115.45935 | 36971 ft | 465 kts | 97° |
| 2026-05-07 15:06 | 33.61427 | -115.42116 | 36966 ft | 456 kts | 86° |
| 2026-05-07 15:06 | 33.61334 | -115.38294 | 36955 ft | 460 kts | 88° |
| 2026-05-07 15:06 | 33.61109 | -115.30640 | 36993 ft | 459 kts | 88° |
| 2026-05-07 15:07 | 33.60910 | -115.22992 | 36956 ft | 458 kts | 88° |
| 2026-05-07 15:07 | 33.60709 | -115.15355 | 36969 ft | 458 kts | 88° |
| 2026-05-07 15:08 | 33.60504 | -115.07715 | 36975 ft | 458 kts | 88° |
| 2026-05-07 15:08 | 33.60294 | -115.00076 | 37004 ft | 458 kts | 88° |
| 2026-05-07 15:09 | 33.60081 | -114.92478 | 36988 ft | 454 kts | 88° |
| 2026-05-07 15:09 | 33.59864 | -114.84894 | 37000 ft | 455 kts | 88° |
| 2026-05-07 15:10 | 33.59637 | -114.77318 | 37003 ft | 456 kts | 89° |
| 2026-05-07 15:10 | 33.59119 | -114.73550 | 37024 ft | 460 kts | 100° |
| 2026-05-07 15:10 | 33.58401 | -114.69804 | 36982 ft | 461 kts | 98° |
| 2026-05-07 15:11 | 33.57005 | -114.62306 | 37023 ft | 462 kts | 98° |
| 2026-05-07 15:11 | 33.55588 | -114.54803 | 36997 ft | 461 kts | 98° |
| 2026-05-07 15:12 | 33.54165 | -114.47303 | 36992 ft | 461 kts | 98° |
| 2026-05-07 15:12 | 33.52739 | -114.39812 | 36980 ft | 461 kts | 98° |
| 2026-05-07 15:13 | 33.51319 | -114.32378 | 36963 ft | 459 kts | 99° |
| 2026-05-07 15:13 | 33.49888 | -114.24915 | 36987 ft | 460 kts | 99° |
| 2026-05-07 15:14 | 33.48454 | -114.17461 | 36972 ft | 459 kts | 99° |
| 2026-05-07 15:14 | 33.47013 | -114.09999 | 36975 ft | 460 kts | 99° |
| 2026-05-07 15:15 | 33.45570 | -114.02550 | 36979 ft | 457 kts | 99° |
| 2026-05-07 15:15 | 33.44132 | -113.95149 | 36978 ft | 456 kts | 99° |
| 2026-05-07 15:16 | 33.42689 | -113.87750 | 36986 ft | 456 kts | 99° |
| 2026-05-07 15:16 | 33.41244 | -113.80359 | 36997 ft | 456 kts | 99° |
| 2026-05-07 15:17 | 33.39774 | -113.72970 | 37010 ft | 457 kts | 103° |
| 2026-05-07 15:17 | 33.37726 | -113.65767 | 37022 ft | 457 kts | 104° |
| 2026-05-07 15:18 | 33.35733 | -113.58557 | 36997 ft | 456 kts | 104° |
| 2026-05-07 15:18 | 33.33751 | -113.51350 | 36995 ft | 457 kts | 104° |
| 2026-05-07 15:19 | 33.31764 | -113.44138 | 36981 ft | 457 kts | 104° |
| 2026-05-07 15:19 | 33.29774 | -113.36936 | 36962 ft | 455 kts | 104° |
| 2026-05-07 15:20 | 33.27786 | -113.29756 | 36963 ft | 455 kts | 104° |
| 2026-05-07 15:20 | 33.25795 | -113.22586 | 36958 ft | 455 kts | 104° |
| 2026-05-07 15:21 | 33.24138 | -113.16630 | 36967 ft | 454 kts | 104° |
| 2026-05-07 15:21 | 33.22149 | -113.09498 | 36966 ft | 452 kts | 104° |
| 2026-05-07 15:22 | 33.19842 | -113.01249 | 36960 ft | 450 kts | 104° |
| 2026-05-07 15:22 | 33.18176 | -112.95304 | 36967 ft | 450 kts | 104° |
| 2026-05-07 15:23 | 33.16184 | -112.88218 | 36978 ft | 450 kts | 104° |
| 2026-05-07 15:23 | 33.14187 | -112.81128 | 36966 ft | 450 kts | 104° |
| 2026-05-07 15:24 | 33.12190 | -112.74054 | 36975 ft | 449 kts | 105° |
| 2026-05-07 15:24 | 33.10196 | -112.67010 | 36974 ft | 448 kts | 105° |
| 2026-05-07 15:25 | 33.08196 | -112.59959 | 36961 ft | 449 kts | 105° |
| 2026-05-07 15:25 | 33.06193 | -112.52907 | 36957 ft | 449 kts | 105° |
| 2026-05-07 15:26 | 33.04276 | -112.45886 | 36963 ft | 449 kts | 105° |
| 2026-05-07 15:26 | 33.02320 | -112.38753 | 36955 ft | 451 kts | 106° |
| 2026-05-07 15:27 | 33.00365 | -112.31639 | 36957 ft | 452 kts | 106° |
| 2026-05-07 15:27 | 32.98422 | -112.24588 | 36959 ft | 452 kts | 106° |
| 2026-05-07 15:28 | 32.96459 | -112.17482 | 36953 ft | 452 kts | 106° |
| 2026-05-07 15:28 | 32.94488 | -112.10366 | 36948 ft | 454 kts | 108° |
| 2026-05-07 15:29 | 32.92501 | -112.03205 | 36957 ft | 456 kts | 108° |
| 2026-05-07 15:29 | 32.90505 | -111.96035 | 36955 ft | 456 kts | 108° |
| 2026-05-07 15:30 | 32.88505 | -111.88866 | 36952 ft | 456 kts | 108° |
| 2026-05-07 15:30 | 32.86502 | -111.81708 | 36957 ft | 456 kts | 108° |
| 2026-05-07 15:31 | 32.84538 | -111.74701 | 36953 ft | 456 kts | 108° |
| 2026-05-07 15:31 | 32.82528 | -111.67551 | 36955 ft | 456 kts | 109° |
| 2026-05-07 15:32 | 32.80512 | -111.60395 | 36963 ft | 456 kts | 109° |
| 2026-05-07 15:32 | 32.78485 | -111.53221 | 36967 ft | 458 kts | 109° |
| 2026-05-07 15:33 | 32.76452 | -111.46042 | 36984 ft | 458 kts | 109° |
| 2026-05-07 15:33 | 32.74415 | -111.38868 | 37002 ft | 458 kts | 109° |
| 2026-05-07 15:34 | 32.72376 | -111.31703 | 37009 ft | 458 kts | 109° |
| 2026-05-07 15:34 | 32.70332 | -111.24539 | 37011 ft | 458 kts | 109° |
| 2026-05-07 15:35 | 32.68285 | -111.17381 | 37008 ft | 458 kts | 109° |
| 2026-05-07 15:35 | 32.66244 | -111.10262 | 36996 ft | 459 kts | 110° |
| 2026-05-07 15:36 | 32.64183 | -111.03090 | 36985 ft | 460 kts | 110° |
| 2026-05-07 15:36 | 32.62108 | -110.95885 | 36979 ft | 461 kts | 110° |
| 2026-05-07 15:37 | 32.60028 | -110.88685 | 36969 ft | 461 kts | 111° |
| 2026-05-07 15:37 | 32.57947 | -110.81494 | 36971 ft | 461 kts | 111° |
| 2026-05-07 15:38 | 32.55856 | -110.74288 | 36966 ft | 464 kts | 111° |
| 2026-05-07 15:38 | 32.53754 | -110.67064 | 36977 ft | 464 kts | 111° |
| 2026-05-07 15:39 | 32.51648 | -110.59842 | 36974 ft | 463 kts | 111° |
| 2026-05-07 15:39 | 32.49539 | -110.52627 | 36974 ft | 463 kts | 111° |
| 2026-05-07 15:40 | 32.47422 | -110.45401 | 36963 ft | 466 kts | 113° |
| 2026-05-07 15:40 | 32.45286 | -110.38130 | 36979 ft | 468 kts | 113° |
| 2026-05-07 15:41 | 32.43142 | -110.30849 | 36982 ft | 468 kts | 113° |
| 2026-05-07 15:41 | 32.40996 | -110.23577 | 36986 ft | 468 kts | 113° |
| 2026-05-07 15:42 | 32.38847 | -110.16317 | 36988 ft | 468 kts | 113° |
| 2026-05-07 15:42 | 32.36691 | -110.09046 | 36983 ft | 469 kts | 114° |
| 2026-05-07 15:43 | 32.34526 | -110.01759 | 36973 ft | 470 kts | 114° |
| 2026-05-07 15:43 | 32.32358 | -109.94476 | 36979 ft | 470 kts | 114° |
| 2026-05-07 15:44 | 32.30175 | -109.87163 | 36987 ft | 472 kts | 114° |
| 2026-05-07 15:44 | 32.29261 | -109.83437 | 36966 ft | 478 kts | 103° |
| 2026-05-07 15:44 | 32.28818 | -109.79535 | 36974 ft | 480 kts | 103° |
| 2026-05-07 15:45 | 32.27856 | -109.71753 | 36999 ft | 484 kts | 103° |
| 2026-05-07 15:45 | 32.26902 | -109.63880 | 36954 ft | 483 kts | 103° |
| 2026-05-07 15:46 | 32.25469 | -109.52097 | 36978 ft | 482 kts | 103° |
| 2026-05-07 15:47 | 32.24507 | -109.44245 | 36957 ft | 484 kts | 104° |
| 2026-05-07 15:47 | 32.23534 | -109.36343 | 36979 ft | 487 kts | 104° |
| 2026-05-07 15:48 | 32.22556 | -109.28436 | 36978 ft | 487 kts | 104° |
| 2026-05-07 15:48 | 32.21572 | -109.20530 | 36990 ft | 487 kts | 104° |
| 2026-05-07 15:49 | 32.20584 | -109.12623 | 36987 ft | 487 kts | 104° |
| 2026-05-07 15:49 | 32.19584 | -109.04676 | 36973 ft | 494 kts | 105° |
| 2026-05-07 15:50 | 32.18570 | -108.96645 | 36974 ft | 495 kts | 105° |
| 2026-05-07 15:50 | 32.17549 | -108.88609 | 36982 ft | 495 kts | 105° |
| 2026-05-07 15:51 | 32.16523 | -108.80567 | 36984 ft | 495 kts | 105° |
| 2026-05-07 15:51 | 32.15490 | -108.72519 | 37088 ft | 498 kts | 105° |
| 2026-05-07 15:52 | 32.14446 | -108.64430 | 37088 ft | 499 kts | 105° |
| 2026-05-07 15:52 | 32.13396 | -108.56331 | 37066 ft | 499 kts | 105° |
| 2026-05-07 15:53 | 32.12342 | -108.48239 | 37036 ft | 499 kts | 105° |
| 2026-05-07 15:53 | 32.11290 | -108.40212 | 36973 ft | 500 kts | 106° |
| 2026-05-07 15:54 | 32.10218 | -108.32065 | 36984 ft | 504 kts | 106° |
| 2026-05-07 15:54 | 32.09137 | -108.23901 | 36984 ft | 504 kts | 106° |
| 2026-05-07 15:55 | 32.08052 | -108.15741 | 36978 ft | 504 kts | 106° |
| 2026-05-07 15:55 | 32.06961 | -108.07581 | 36985 ft | 504 kts | 106° |
| 2026-05-07 15:56 | 32.05867 | -107.99432 | 36979 ft | 504 kts | 106° |
| 2026-05-07 15:56 | 32.04766 | -107.91280 | 36977 ft | 503 kts | 106° |
| 2026-05-07 15:57 | 32.03660 | -107.83129 | 36978 ft | 503 kts | 106° |
| 2026-05-07 15:57 | 32.02550 | -107.74989 | 37054 ft | 503 kts | 106° |
| 2026-05-07 15:58 | 32.01430 | -107.66819 | 37054 ft | 507 kts | 106° |